Time;durP1;ratioP1;P1;durP2;ratioP2;P2;SDS_P1;SDS_P2;PMS_P1;PMS_P2;Temp;Humidity;BMP_temperature;BMP_pressure;BME280_temperature;BME280_humidity;BME280_pressure;Samples;Min_cycle;Max_cycle;Signal;HPM_P1;HPM_P2
2023/06/24 00:00:23;;;;;;;2.85;2.13;;;25.10;48.60;;;;;;5004807;28;114368;-80
2023/06/24 00:02:51;;;;;;;3.20;1.95;;;25.10;48.00;;;;;;5003384;28;114901;-81
2023/06/24 00:05:18;;;;;;;2.88;2.20;;;25.10;49.10;;;;;;4988159;28;114572;-80
2023/06/24 00:07:45;;;;;;;3.65;2.00;;;25.10;47.20;;;;;;5004408;28;114202;-81
2023/06/24 00:10:13;;;;;;;3.03;2.10;;;25.20;48.30;;;;;;4988038;28;114481;-81
2023/06/24 00:13:01;;;;;;;2.88;1.98;;;25.10;48.60;;;;;;5000970;28;116248;-81
2023/06/24 00:15:29;;;;;;;3.47;2.05;;;25.20;48.20;;;;;;5002247;28;114875;-80
2023/06/24 00:18:05;;;;;;;3.40;2.20;;;25.20;48.90;;;;;;4988356;28;114168;-80
2023/06/24 00:20:34;;;;;;;2.75;2.05;;;25.20;49.20;;;;;;5002533;28;114988;-80
2023/06/24 00:23:02;;;;;;;2.63;1.80;;;25.20;47.60;;;;;;5002937;28;114940;-80
2023/06/24 00:25:30;;;;;;;2.85;2.03;;;25.20;48.00;;;;;;5002884;28;115011;-80
2023/06/24 00:27:58;;;;;;;3.17;1.90;;;25.30;47.80;;;;;;4987789;28;114291;-81
2023/06/24 00:30:26;;;;;;;4.93;2.40;;;25.20;48.40;;;;;;5003684;28;114702;-81
2023/06/24 00:32:55;;;;;;;2.83;2.17;;;25.30;47.60;;;;;;4986182;28;114987;-80
2023/06/24 00:35:25;;;;;;;2.67;1.90;;;25.30;48.80;;;;;;4987842;28;114711;-81
2023/06/24 00:37:58;;;;;;;2.92;2.15;;;25.30;48.40;;;;;;5004909;28;114262;-81
2023/06/24 00:40:26;;;;;;;;;;;25.20;46.80;;;;;;4992226;28;115814;-81
2023/06/24 00:42:53;;;;;;;3.75;2.03;;;25.10;47.50;;;;;;4986492;28;115280;-81
2023/06/24 00:45:25;;;;;;;3.30;2.10;;;25.00;48.30;;;;;;4985803;28;115258;-82
2023/06/24 00:47:54;;;;;;;3.13;2.45;;;25.10;46.60;;;;;;4987548;28;114479;-81
2023/06/24 00:50:22;;;;;;;3.35;1.95;;;25.20;48.10;;;;;;4970220;28;114364;-81
2023/06/24 00:52:50;;;;;;;3.05;2.25;;;25.20;48.30;;;;;;4986656;28;114483;-81
2023/06/24 00:55:20;;;;;;;3.08;2.10;;;25.20;47.70;;;;;;4987359;28;115285;-80
2023/06/24 00:57:51;;;;;;;2.90;2.00;;;25.30;47.30;;;;;;4986709;28;114266;-81
2023/06/24 01:00:23;;;;;;;5.50;2.05;;;25.30;48.70;;;;;;4987201;28;114377;-80
2023/06/24 01:02:50;;;;;;;3.53;2.25;;;25.30;47.50;;;;;;5002224;28;115030;-80
2023/06/24 01:05:17;;;;;;;3.45;2.22;;;25.20;45.80;;;;;;5002986;28;115228;-79
2023/06/24 01:07:45;;;;;;;3.55;2.20;;;25.10;46.80;;;;;;4986853;28;114976;-79
2023/06/24 01:10:14;;;;;;;2.97;1.83;;;25.00;48.10;;;;;;4988005;28;114509;-80
2023/06/24 01:12:44;;;;;;;3.33;2.03;;;25.10;47.70;;;;;;4985708;28;116198;-80
2023/06/24 01:15:11;;;;;;;3.22;2.13;;;25.10;47.20;;;;;;5002093;28;115984;-79
2023/06/24 01:17:50;;;;;;;3.40;2.08;;;25.10;48.80;;;;;;4987693;28;114424;-79
2023/06/24 01:20:34;;;;;;;2.80;1.98;;;25.10;48.20;;;;;;4987696;28;114271;-80
2023/06/24 01:23:25;;;;;;;2.90;1.90;;;25.20;48.40;;;;;;4984445;28;115117;-80
2023/06/24 01:26:42;;;;;;;2.97;2.28;;;25.10;48.10;;;;;;4985867;28;114911;-79
2023/06/24 01:29:51;;;;;;;3.53;2.50;;;25.10;47.00;;;;;;4978383;28;114869;-79
2023/06/24 01:32:29;;;;;;;3.25;2.00;;;25.00;46.40;;;;;;4986132;28;114099;-80
2023/06/24 01:34:59;;;;;;;2.97;2.03;;;24.90;47.60;;;;;;5000576;28;114957;-79
2023/06/24 01:37:35;;;;;;;3.15;2.40;;;24.90;47.50;;;;;;4985339;28;114629;-79
2023/06/24 01:40:11;;;;;;;3.30;2.00;;;24.90;47.60;;;;;;4986295;28;114652;-79
2023/06/24 01:42:42;;;;;;;4.13;2.35;;;24.90;48.40;;;;;;4986588;28;114113;-79
2023/06/24 01:45:12;;;;;;;3.20;1.90;;;24.90;48.10;;;;;;4981001;28;115281;-80
2023/06/24 01:47:40;;;;;;;4.00;2.35;;;24.90;48.90;;;;;;4982044;28;116780;-80
2023/06/24 01:50:09;;;;;;;3.05;2.13;;;24.90;48.00;;;;;;4962407;28;114231;-79
2023/06/24 01:52:38;;;;;;;3.50;2.13;;;25.00;48.50;;;;;;5003098;28;114529;-79
2023/06/24 01:55:07;;;;;;;3.42;2.05;;;25.00;47.50;;;;;;4985252;28;114865;-79
2023/06/24 01:57:36;;;;;;;4.15;2.55;;;25.00;48.00;;;;;;4967645;28;118202;-80
2023/06/24 02:00:08;;;;;;;3.80;2.30;;;24.90;48.50;;;;;;4985765;28;114392;-79
2023/06/24 02:02:48;;;;;;;3.15;2.25;;;24.90;47.70;;;;;;4987621;28;114294;-80
2023/06/24 02:05:15;;;;;;;3.00;2.20;;;24.90;48.20;;;;;;4984731;28;115101;-80
2023/06/24 02:07:42;;;;;;;3.50;2.78;;;24.90;48.50;;;;;;5001724;28;114783;-80
2023/06/24 02:10:10;;;;;;;2.70;2.00;;;24.80;46.70;;;;;;5002545;28;114448;-79
2023/06/24 02:12:38;;;;;;;3.20;2.50;;;24.80;49.00;;;;;;4985498;28;114182;-79
2023/06/24 02:15:06;;;;;;;3.28;2.13;;;24.80;49.30;;;;;;4948371;28;115349;-79
2023/06/24 02:17:34;;;;;;;4.03;2.70;;;24.80;48.80;;;;;;4965388;28;114720;-79
2023/06/24 02:20:01;;;;;;;4.55;2.40;;;24.80;46.70;;;;;;4967521;28;114370;-79
2023/06/24 02:22:28;;;;;;;3.65;2.08;;;24.80;48.70;;;;;;4966006;28;114348;-80
2023/06/24 02:24:55;;;;;;;3.72;2.13;;;24.90;48.30;;;;;;4964248;28;115562;-79
2023/06/24 02:27:23;;;;;;;4.47;2.00;;;24.90;48.00;;;;;;4966569;28;114653;-79
2023/06/24 02:29:50;;;;;;;3.65;2.25;;;24.90;48.20;;;;;;4981634;28;114294;-79
2023/06/24 02:32:17;;;;;;;2.92;2.13;;;25.00;47.70;;;;;;4987493;28;114288;-80
2023/06/24 02:34:46;;;;;;;3.95;2.50;;;25.00;48.50;;;;;;4987975;28;115008;-79
2023/06/24 02:37:13;;;;;;;4.35;2.10;;;24.90;48.20;;;;;;4988567;28;114601;-80
2023/06/24 02:39:44;;;;;;;2.63;1.90;;;24.80;48.50;;;;;;4959850;28;114364;-80
2023/06/24 02:42:12;;;;;;;3.47;2.30;;;24.80;47.90;;;;;;4985274;28;114776;-80
2023/06/24 02:44:40;;;;;;;3.65;2.35;;;24.80;48.10;;;;;;4982788;28;116147;-80
2023/06/24 02:47:09;;;;;;;5.35;2.13;;;24.80;47.40;;;;;;4970133;28;114489;-80
2023/06/24 02:49:36;;;;;;;4.03;2.35;;;24.80;48.10;;;;;;4984727;28;114109;-79
2023/06/24 02:52:05;;;;;;;2.47;2.00;;;24.80;47.20;;;;;;4953773;28;114332;-79
2023/06/24 02:54:33;;;;;;;2.92;2.33;;;24.80;47.90;;;;;;4968326;28;115017;-80
2023/06/24 02:57:29;;;;;;;2.85;2.33;;;24.80;47.10;;;;;;4982248;28;117450;-80
2023/06/24 03:00:27;;;;;;;3.08;2.03;;;24.80;47.60;;;;;;4988832;28;114747;-80
2023/06/24 03:03:15;;;;;;;3.08;2.10;;;24.80;49.20;;;;;;4988731;28;114335;-80
2023/06/24 03:05:50;;;;;;;3.05;2.35;;;24.80;48.60;;;;;;4987872;28;115490;-80
2023/06/24 03:08:20;;;;;;;3.53;2.20;;;24.80;47.80;;;;;;4988375;28;114696;-79
2023/06/24 03:10:51;;;;;;;2.50;1.95;;;24.80;47.50;;;;;;4988905;28;114508;-81
2023/06/24 03:13:22;;;;;;;2.83;1.80;;;24.80;48.80;;;;;;4988810;28;114237;-81
2023/06/24 03:15:55;;;;;;;;;;;24.90;49.10;;;;;;4970961;28;118501;-80
2023/06/24 03:18:23;;;;;;;3.53;2.20;;;24.80;48.50;;;;;;4988096;28;114422;-80
2023/06/24 03:20:52;;;;;;;2.70;2.00;;;24.70;49.10;;;;;;4989908;28;114521;-79
2023/06/24 03:23:23;;;;;;;4.53;2.47;;;24.80;47.90;;;;;;4987985;28;114194;-78
2023/06/24 03:25:51;;;;;;;3.30;2.50;;;24.80;48.90;;;;;;4988379;28;115389;-80
2023/06/24 03:28:18;;;;;;;3.78;2.30;;;24.80;48.80;;;;;;4987435;28;114847;-80
2023/06/24 03:30:51;;;;;;;3.00;2.27;;;24.80;48.80;;;;;;4988294;28;114482;-81
2023/06/24 03:33:20;;;;;;;3.33;2.08;;;24.80;47.60;;;;;;4972132;28;114577;-80
2023/06/24 03:35:47;;;;;;;4.53;2.30;;;24.80;48.70;;;;;;4987826;28;114997;-80
2023/06/24 03:38:18;;;;;;;3.15;2.35;;;24.80;49.10;;;;;;4972192;28;115167;-80
2023/06/24 03:40:47;;;;;;;3.30;2.47;;;24.70;49.00;;;;;;4988122;28;114141;-80
2023/06/24 03:43:14;;;;;;;3.80;1.90;;;24.80;47.90;;;;;;4988927;28;114274;-80
2023/06/24 03:45:41;;;;;;;4.10;2.58;;;24.70;49.40;;;;;;4987072;28;114863;-80
2023/06/24 03:48:10;;;;;;;5.32;2.60;;;24.70;48.10;;;;;;4988470;28;114661;-80
2023/06/24 03:50:37;;;;;;;4.63;2.58;;;24.70;48.40;;;;;;4988065;28;114349;-80
2023/06/24 03:53:05;;;;;;;4.60;2.40;;;24.70;47.50;;;;;;4988089;28;114488;-81
2023/06/24 03:55:34;;;;;;;3.22;2.25;;;24.60;48.50;;;;;;4986807;28;115687;-80
2023/06/24 03:58:02;;;;;;;2.92;2.20;;;24.60;49.70;;;;;;4986987;28;114832;-81
2023/06/24 04:00:29;;;;;;;4.18;2.25;;;24.60;48.60;;;;;;4987851;28;114491;-80
2023/06/24 04:03:01;;;;;;;3.42;2.28;;;24.60;48.60;;;;;;4989015;28;114213;-79
2023/06/24 04:05:28;;;;;;;5.80;2.17;;;24.60;48.70;;;;;;4986702;28;114924;-79
2023/06/24 04:07:56;;;;;;;3.45;2.40;;;24.50;48.90;;;;;;4986529;28;114687;-80
2023/06/24 04:10:24;;;;;;;4.22;2.28;;;24.50;48.50;;;;;;4987237;28;114413;-80
2023/06/24 04:12:52;;;;;;;3.40;2.35;;;24.50;49.20;;;;;;4988908;28;114125;-79
2023/06/24 04:15:19;;;;;;;4.93;2.88;;;24.50;48.60;;;;;;4987036;28;116072;-79
2023/06/24 04:17:47;;;;;;;3.28;2.33;;;24.60;48.20;;;;;;4960096;28;114640;-80
2023/06/24 04:20:14;;;;;;;3.13;2.20;;;24.40;48.20;;;;;;4967474;28;114412;-79
2023/06/24 04:22:42;;;;;;;3.53;2.35;;;24.30;49.20;;;;;;4982528;28;113939;-81
2023/06/24 04:25:10;;;;;;;3.28;2.47;;;24.30;48.90;;;;;;4950111;28;117417;-80
2023/06/24 04:27:37;;;;;;;3.83;2.33;;;24.30;49.40;;;;;;4966414;28;114682;-80
2023/06/24 04:30:08;;;;;;;3.28;2.33;;;24.30;49.80;;;;;;4951055;28;114389;-80
2023/06/24 04:32:35;;;;;;;4.38;2.15;;;24.30;50.00;;;;;;4968995;28;114248;-79
2023/06/24 04:35:04;;;;;;;3.53;2.28;;;24.40;50.10;;;;;;4951140;28;114847;-79
2023/06/24 04:37:33;;;;;;;4.55;2.00;;;24.40;49.40;;;;;;4975721;28;116722;-80
2023/06/24 04:40:01;;;;;;;2.33;1.65;;;24.40;49.80;;;;;;4967410;28;114356;-79
2023/06/24 04:42:29;;;;;;;4.50;2.50;;;24.50;50.50;;;;;;4968453;28;114382;-81
2023/06/24 04:44:57;;;;;;;3.13;2.25;;;24.50;49.20;;;;;;4967062;28;117077;-79
2023/06/24 04:47:24;;;;;;;3.83;2.53;;;24.40;50.40;;;;;;4983216;28;115019;-79
2023/06/24 04:49:51;;;;;;;4.97;2.47;;;24.30;49.60;;;;;;4968307;28;114240;-79
2023/06/24 04:52:18;;;;;;;3.20;2.28;;;24.30;50.10;;;;;;4983147;28;114425;-79
2023/06/24 04:54:46;;;;;;;4.03;2.65;;;24.30;50.20;;;;;;4985965;28;118137;-81
2023/06/24 04:57:24;;;;;;;2.88;2.20;;;24.20;49.70;;;;;;4987219;28;114990;-79
2023/06/24 04:59:51;;;;;;;2.90;2.20;;;24.20;50.90;;;;;;5003199;28;114327;-79
2023/06/24 05:02:18;;;;;;;5.32;2.92;;;24.20;51.00;;;;;;4987597;28;114371;-79
2023/06/24 05:04:45;;;;;;;3.85;2.72;;;24.20;50.40;;;;;;4987415;28;114932;-79
2023/06/24 05:07:12;;;;;;;5.50;3.50;;;24.30;50.70;;;;;;4986008;28;114663;-79
2023/06/24 05:09:40;;;;;;;4.85;3.35;;;24.30;50.00;;;;;;4987967;28;114373;-79
2023/06/24 05:12:08;;;;;;;6.30;4.70;;;24.30;50.20;;;;;;4988506;28;114239;-81
2023/06/24 05:14:35;;;;;;;6.78;5.28;;;24.20;50.30;;;;;;4985878;28;116274;-81
2023/06/24 05:17:06;;;;;;;9.38;6.28;;;24.00;51.10;;;;;;5002367;28;115137;-81
2023/06/24 05:19:33;;;;;;;11.85;9.10;;;23.90;51.20;;;;;;4986867;28;114667;-81
2023/06/24 05:22:03;;;;;;;10.02;6.65;;;23.80;51.30;;;;;;5004115;28;114353;-80
2023/06/24 05:24:30;;;;;;;11.63;6.75;;;23.60;52.10;;;;;;4986850;28;115085;-80
2023/06/24 05:27:04;;;;;;;7.30;5.15;;;23.50;52.60;;;;;;4990117;28;115582;-80
2023/06/24 05:29:32;;;;;;;;;;;23.60;52.90;;;;;;4983372;28;114240;-79
2023/06/24 05:32:01;;;;;;;12.77;6.93;;;23.60;51.80;;;;;;4969097;28;114263;-79
2023/06/24 05:34:28;;;;;;;9.60;6.00;;;23.60;52.90;;;;;;4967231;28;117043;-80
2023/06/24 05:36:56;;;;;;;14.18;8.77;;;23.80;52.80;;;;;;4965897;28;114702;-80
2023/06/24 05:39:24;;;;;;;7.80;5.10;;;23.90;52.60;;;;;;4983041;28;114163;-80
2023/06/24 05:41:51;;;;;;;12.80;8.52;;;23.90;52.50;;;;;;4983115;28;114413;-80
2023/06/24 05:44:19;;;;;;;9.10;5.32;;;24.00;52.50;;;;;;4966358;28;114949;-79
2023/06/24 05:46:46;;;;;;;19.60;12.57;;;24.00;52.40;;;;;;4982071;28;114730;-80
2023/06/24 05:49:15;;;;;;;11.38;6.65;;;24.10;52.80;;;;;;4966557;28;114142;-81
2023/06/24 05:51:42;;;;;;;9.27;6.30;;;24.00;52.70;;;;;;4967839;28;114338;-79
2023/06/24 05:54:10;;;;;;;16.98;10.65;;;24.00;52.80;;;;;;4966929;28;115784;-79
2023/06/24 05:56:38;;;;;;;12.32;8.93;;;24.00;53.40;;;;;;4966546;28;114912;-80
2023/06/24 05:59:06;;;;;;;10.95;7.85;;;24.00;53.10;;;;;;4967744;28;114742;-80
2023/06/24 06:01:33;;;;;;;13.93;10.02;;;24.00;53.20;;;;;;4967160;28;114301;-80
2023/06/24 06:04:00;;;;;;;9.13;6.00;;;24.00;53.30;;;;;;4966444;28;114991;-80
2023/06/24 06:06:28;;;;;;;12.13;8.43;;;24.10;53.10;;;;;;4966600;28;114604;-80
2023/06/24 06:08:57;;;;;;;11.13;7.85;;;24.10;53.40;;;;;;4982086;28;114171;-81
2023/06/24 06:11:24;;;;;;;11.52;9.20;;;24.10;53.40;;;;;;4967354;28;114226;-80
2023/06/24 06:13:52;;;;;;;12.38;7.95;;;24.10;53.60;;;;;;4964342;28;116151;-80
2023/06/24 06:16:19;;;;;;;10.23;7.07;;;24.10;53.50;;;;;;4971129;28;114358;-80
2023/06/24 06:18:46;;;;;;;11.00;9.32;;;24.10;53.40;;;;;;4966954;28;114359;-81
2023/06/24 06:21:16;;;;;;;11.27;6.88;;;24.10;53.70;;;;;;4966606;28;114189;-81
2023/06/24 06:23:43;;;;;;;10.60;6.57;;;24.10;53.40;;;;;;4967091;28;115105;-81
2023/06/24 06:26:10;;;;;;;8.80;6.68;;;24.00;53.30;;;;;;4983850;28;114705;-81
2023/06/24 06:28:38;;;;;;;10.90;7.93;;;24.00;53.50;;;;;;4983628;28;114308;-79
2023/06/24 06:31:05;;;;;;;7.90;6.30;;;24.00;53.90;;;;;;4982249;28;114249;-82
2023/06/24 06:33:32;;;;;;;7.53;6.18;;;24.00;53.80;;;;;;4965266;28;115646;-81
2023/06/24 06:35:59;;;;;;;8.65;5.35;;;23.90;53.80;;;;;;4965913;28;114720;-81
2023/06/24 06:38:27;;;;;;;7.75;5.53;;;24.00;53.60;;;;;;4968512;28;114354;-81
2023/06/24 06:40:54;;;;;;;7.95;4.88;;;24.00;53.80;;;;;;4966362;28;114281;-80
2023/06/24 06:43:21;;;;;;;6.15;5.15;;;24.00;53.70;;;;;;4965788;28;115088;-80
2023/06/24 06:45:48;;;;;;;6.95;5.03;;;24.00;53.90;;;;;;4965287;28;114562;-81
2023/06/24 06:48:15;;;;;;;7.53;4.93;;;24.10;53.60;;;;;;4965778;28;114338;-80
2023/06/24 06:50:43;;;;;;;6.97;5.53;;;24.10;53.50;;;;;;4966733;28;114357;-81
2023/06/24 06:53:10;;;;;;;7.38;5.90;;;24.20;53.50;;;;;;4965128;28;115067;-80
2023/06/24 06:55:42;;;;;;;6.45;5.80;;;24.20;53.60;;;;;;4965041;28;114783;-79
2023/06/24 06:58:12;;;;;;;6.50;5.80;;;24.20;53.60;;;;;;4964929;28;114279;-82
2023/06/24 07:00:39;;;;;;;8.43;7.40;;;24.20;53.70;;;;;;4966822;28;114621;-81
2023/06/24 07:03:07;;;;;;;8.95;8.05;;;24.10;53.80;;;;;;4966873;28;115081;-81
2023/06/24 07:05:34;;;;;;;8.48;7.22;;;24.00;53.90;;;;;;4971579;28;114696;-82
2023/06/24 07:08:05;;;;;;;7.00;5.43;;;23.80;54.40;;;;;;4967339;28;114607;-81
2023/06/24 07:10:32;;;;;;;10.63;7.93;;;23.80;54.30;;;;;;4970699;28;116337;-81
2023/06/24 07:13:09;;;;;;;8.02;6.35;;;23.80;54.50;;;;;;4949585;28;115030;-81
2023/06/24 07:15:57;;;;;;;10.82;9.73;;;23.70;54.60;;;;;;4966544;28;115146;-82
2023/06/24 07:18:24;;;;;;;7.88;6.63;;;23.60;55.00;;;;;;4975451;28;114395;-81
2023/06/24 07:20:53;;;;;;;7.72;6.93;;;23.50;55.20;;;;;;4966624;28;115051;-80
2023/06/24 07:23:20;;;;;;;7.40;6.60;;;23.30;55.60;;;;;;4947107;28;117428;-81
2023/06/24 07:25:47;;;;;;;10.15;8.95;;;23.30;55.60;;;;;;4981956;28;114685;-81
2023/06/24 07:28:18;;;;;;;10.20;8.48;;;23.40;55.90;;;;;;4968630;28;114400;-80
2023/06/24 07:30:46;;;;;;;8.95;7.72;;;23.40;55.90;;;;;;4968707;28;114263;-81
2023/06/24 07:33:13;;;;;;;10.35;9.20;;;23.30;55.90;;;;;;4966761;28;115555;-81
2023/06/24 07:35:40;;;;;;;8.30;7.45;;;23.30;56.00;;;;;;4967576;28;114689;-81
2023/06/24 07:38:07;;;;;;;11.02;7.43;;;23.30;56.10;;;;;;4988263;28;114434;-81
2023/06/24 07:40:35;;;;;;;13.60;11.07;;;23.30;56.10;;;;;;4973654;28;114150;-81
2023/06/24 07:43:03;;;;;;;12.35;11.05;;;23.40;55.80;;;;;;4966453;28;114895;-81
2023/06/24 07:45:30;;;;;;;14.35;10.88;;;23.30;56.00;;;;;;4966523;28;114549;-82
2023/06/24 07:47:58;;;;;;;9.32;8.00;;;23.10;55.80;;;;;;4970218;28;114313;-81
2023/06/24 07:50:25;;;;;;;9.48;7.05;;;22.90;56.30;;;;;;4969667;28;114165;-80
2023/06/24 07:52:52;;;;;;;7.45;6.50;;;22.80;56.60;;;;;;4967331;28;116256;-80
2023/06/24 07:55:20;;;;;;;17.23;12.63;;;22.80;56.70;;;;;;4986788;28;114639;-81
2023/06/24 07:57:47;;;;;;;10.52;8.25;;;22.80;55.90;;;;;;4968065;28;114208;-80
2023/06/24 08:00:15;;;;;;;15.55;13.95;;;22.70;56.70;;;;;;4955955;28;114514;-80
2023/06/24 08:02:42;;;;;;;9.13;8.15;;;22.60;56.00;;;;;;4988002;28;114475;-80
2023/06/24 08:05:10;;;;;;;14.75;11.85;;;22.60;56.70;;;;;;4973013;28;115165;-81
2023/06/24 08:07:38;;;;;;;14.55;12.65;;;22.60;56.60;;;;;;4967715;28;114453;-79
2023/06/24 08:10:06;;;;;;;13.43;10.18;;;22.60;56.60;;;;;;4971815;28;114143;-80
2023/06/24 08:12:34;;;;;;;12.75;10.00;;;22.80;56.40;;;;;;4966932;28;114942;-80
2023/06/24 08:15:01;;;;;;;12.30;10.93;;;22.90;56.50;;;;;;4966484;28;114894;-80
2023/06/24 08:17:30;;;;;;;12.35;9.85;;;22.90;55.80;;;;;;4983716;28;114489;-79
2023/06/24 08:19:57;;;;;;;11.82;10.18;;;22.80;56.20;;;;;;4969344;28;114222;-79
2023/06/24 08:22:24;;;;;;;11.73;9.02;;;22.80;56.30;;;;;;4969074;28;116438;-79
2023/06/24 08:24:52;;;;;;;12.20;10.90;;;22.80;56.60;;;;;;4963958;28;114728;-79
2023/06/24 08:27:19;;;;;;;10.30;9.20;;;22.80;56.30;;;;;;4967908;28;114373;-80
2023/06/24 08:29:47;;;;;;;10.43;9.27;;;22.60;56.70;;;;;;4967659;28;114303;-80
2023/06/24 08:32:14;;;;;;;8.90;7.72;;;22.50;57.10;;;;;;4987117;28;115359;-80
2023/06/24 08:34:41;;;;;;;11.52;10.30;;;22.40;57.60;;;;;;4949484;28;116041;-81
2023/06/24 08:37:12;;;;;;;12.98;9.95;;;22.40;57.20;;;;;;4966042;28;114664;-81
2023/06/24 08:39:53;;;;;;;10.57;8.00;;;22.50;57.10;;;;;;4965839;28;114503;-78
2023/06/24 08:42:22;;;;;;;10.18;9.10;;;22.50;57.50;;;;;;4982269;28;115401;-79
2023/06/24 08:44:50;;;;;;;9.63;8.63;;;22.70;56.90;;;;;;4963933;28;114848;-81
2023/06/24 08:47:18;;;;;;;10.18;9.02;;;22.80;56.70;;;;;;4966764;28;114580;-79
2023/06/24 08:49:55;;;;;;;10.52;8.25;;;22.90;56.30;;;;;;4935453;28;114524;-80
2023/06/24 08:52:26;;;;;;;12.63;8.27;;;23.00;56.20;;;;;;4959529;28;114930;-79
2023/06/24 08:54:53;;;;;;;12.27;10.95;;;23.00;56.30;;;;;;4985926;28;115367;-79
2023/06/24 08:57:20;;;;;;;14.10;10.00;;;23.00;55.70;;;;;;4979483;28;115008;-80
2023/06/24 08:59:47;;;;;;;11.32;9.45;;;22.80;56.00;;;;;;4965555;28;114239;-79
2023/06/24 09:02:15;;;;;;;13.57;9.63;;;22.60;56.40;;;;;;4964757;28;115492;-79
2023/06/24 09:04:42;;;;;;;17.33;13.95;;;22.50;56.70;;;;;;4965669;28;114596;-81
2023/06/24 09:07:10;;;;;;;12.55;11.05;;;22.50;55.50;;;;;;4965603;28;114533;-79
2023/06/24 09:09:46;;;;;;;12.68;11.18;;;22.30;56.10;;;;;;4966254;28;114417;-81
2023/06/24 09:12:14;;;;;;;12.23;9.77;;;22.20;57.30;;;;;;4981365;28;115018;-81
2023/06/24 09:14:49;;;;;;;16.80;13.25;;;22.10;57.10;;;;;;4966505;28;114899;-81
2023/06/24 09:17:17;;;;;;;14.80;12.63;;;22.30;56.70;;;;;;4949414;28;114535;-81
2023/06/24 09:19:44;;;;;;;15.73;10.43;;;22.30;55.90;;;;;;4967066;28;114349;-80
2023/06/24 09:22:16;;;;;;;17.45;13.20;;;22.30;56.50;;;;;;4965103;28;114912;-79
2023/06/24 09:24:47;;;;;;;15.68;12.73;;;22.30;55.30;;;;;;4981381;28;114583;-80
2023/06/24 09:27:22;;;;;;;15.30;12.95;;;22.40;55.40;;;;;;4965689;28;114343;-81
2023/06/24 09:29:49;;;;;;;17.23;14.00;;;22.30;55.10;;;;;;4982018;28;114484;-80
2023/06/24 09:32:17;;;;;;;14.77;12.40;;;22.20;55.60;;;;;;4966473;28;114981;-81
2023/06/24 09:34:44;;;;;;;10.95;9.82;;;22.30;55.70;;;;;;4966466;28;114849;-80
2023/06/24 09:37:12;;;;;;;11.32;10.13;;;22.20;56.50;;;;;;4965763;28;114384;-80
2023/06/24 09:39:40;;;;;;;11.85;10.02;;;22.30;57.00;;;;;;4981917;28;114550;-82
2023/06/24 09:42:07;;;;;;;14.35;12.55;;;22.40;56.10;;;;;;4966054;28;115112;-80
2023/06/24 09:44:35;;;;;;;13.05;11.20;;;22.50;55.20;;;;;;4965876;28;115256;-80
2023/06/24 09:47:03;;;;;;;11.48;7.72;;;22.40;55.80;;;;;;4965812;28;115170;-79
2023/06/24 09:49:56;;;;;;;11.82;9.82;;;22.50;56.80;;;;;;4966790;28;114395;-85
2023/06/24 09:52:23;;;;;;;15.30;13.82;;;22.60;55.90;;;;;;4959045;28;114955;-80
2023/06/24 09:54:51;;;;;;;12.50;9.18;;;22.50;55.10;;;;;;4964893;28;114827;-80
2023/06/24 09:57:23;;;;;;;10.90;9.73;;;22.60;55.90;;;;;;4981862;28;114310;-80
2023/06/24 09:59:50;;;;;;;11.90;10.68;;;22.80;55.80;;;;;;4982108;28;114185;-80
2023/06/24 10:02:18;;;;;;;10.32;9.25;;;22.80;55.50;;;;;;4981282;28;115244;-80
2023/06/24 10:04:47;;;;;;;13.88;12.40;;;22.90;55.20;;;;;;4966246;28;114781;-80
2023/06/24 10:07:14;;;;;;;13.73;11.30;;;23.00;54.10;;;;;;4965719;28;114299;-80
2023/06/24 10:09:42;;;;;;;15.65;13.48;;;22.90;54.40;;;;;;4968475;28;114183;-80
2023/06/24 10:12:10;;;;;;;15.18;13.68;;;22.80;54.30;;;;;;4968908;28;115266;-80
2023/06/24 10:14:41;;;;;;;11.93;10.48;;;22.70;54.20;;;;;;4966062;28;114999;-81
2023/06/24 10:17:21;;;;;;;13.67;12.03;;;22.60;55.50;;;;;;4979388;28;114490;-80
2023/06/24 10:19:48;;;;;;;13.20;11.63;;;22.60;55.20;;;;;;4966758;28;114070;-80
2023/06/24 10:22:15;;;;;;;11.80;8.77;;;22.80;54.90;;;;;;4964492;28;117504;-79
2023/06/24 10:24:46;;;;;;;11.35;9.82;;;22.80;55.30;;;;;;4981120;28;116044;-81
2023/06/24 10:27:14;;;;;;;14.02;11.32;;;22.90;55.20;;;;;;4956947;28;114258;-81
2023/06/24 10:29:46;;;;;;;21.10;12.02;;;22.90;54.50;;;;;;4966539;28;114214;-80
2023/06/24 10:32:13;;;;;;;16.20;13.82;;;23.00;54.00;;;;;;4965716;28;115007;-80
2023/06/24 10:34:41;;;;;;;15.57;13.80;;;22.80;53.10;;;;;;4948953;28;114872;-79
2023/06/24 10:37:14;;;;;;;15.68;13.07;;;22.40;53.60;;;;;;4981263;28;114587;-79
2023/06/24 10:40:07;;;;;;;14.20;12.30;;;22.30;54.60;;;;;;4966539;28;114102;-80
2023/06/24 10:42:45;;;;;;;14.57;13.05;;;22.30;54.90;;;;;;4963268;28;116075;-80
2023/06/24 10:45:14;;;;;;;14.73;13.07;;;22.30;55.00;;;;;;4965935;28;114984;-81
2023/06/24 10:47:46;;;;;;;12.00;10.73;;;22.30;54.50;;;;;;4967690;28;114431;-81
2023/06/24 10:50:21;;;;;;;13.45;11.20;;;22.40;55.40;;;;;;4967173;28;114482;-80
2023/06/24 10:52:53;;;;;;;14.13;11.48;;;22.30;54.90;;;;;;4965448;28;115047;-80
2023/06/24 10:55:21;;;;;;;11.75;10.57;;;22.30;55.20;;;;;;4964337;28;114583;-79
2023/06/24 10:57:48;;;;;;;13.30;11.00;;;22.40;55.70;;;;;;4983978;28;114669;-81
2023/06/24 11:00:15;;;;;;;12.68;11.43;;;22.30;55.80;;;;;;4972123;28;114367;-80
2023/06/24 11:02:43;;;;;;;15.23;11.23;;;22.50;55.30;;;;;;4969956;28;115063;-80
2023/06/24 11:05:11;;;;;;;12.07;10.85;;;22.50;55.00;;;;;;4983723;28;114760;-80
2023/06/24 11:07:39;;;;;;;13.07;11.35;;;22.60;55.70;;;;;;4968762;28;114886;-80
2023/06/24 11:10:13;;;;;;;12.63;11.00;;;22.80;55.30;;;;;;4968192;28;114276;-80
2023/06/24 11:12:41;;;;;;;13.73;11.85;;;22.80;54.50;;;;;;4968298;28;114323;-80
2023/06/24 11:15:09;;;;;;;14.27;10.98;;;23.00;54.50;;;;;;4967076;28;117381;-80
2023/06/24 11:17:37;;;;;;;13.48;12.00;;;23.10;54.40;;;;;;4967888;28;114370;-80
2023/06/24 11:20:12;;;;;;;16.48;12.82;;;23.20;53.30;;;;;;4969078;28;114104;-80
2023/06/24 11:22:43;;;;;;;11.73;10.52;;;23.20;53.00;;;;;;4983058;28;114989;-80
2023/06/24 11:25:18;;;;;;;12.65;11.15;;;22.90;54.30;;;;;;4968502;28;114777;-80
2023/06/24 11:27:45;;;;;;;12.18;10.98;;;22.90;54.00;;;;;;4984010;28;114312;-80
2023/06/24 11:30:13;;;;;;;13.27;11.27;;;23.00;54.30;;;;;;4967675;28;114466;-80
2023/06/24 11:32:41;;;;;;;13.70;11.48;;;23.10;54.30;;;;;;4966440;28;115128;-80
2023/06/24 11:35:09;;;;;;;11.73;10.48;;;23.20;53.30;;;;;;4982831;28;114710;-80
2023/06/24 11:37:36;;;;;;;11.57;10.38;;;23.20;53.90;;;;;;4967622;28;115862;-80
2023/06/24 11:40:07;;;;;;;13.25;11.95;;;23.10;54.00;;;;;;4984048;28;114351;-80
2023/06/24 11:42:41;;;;;;;11.40;10.18;;;23.20;53.80;;;;;;4966442;28;116770;-80
2023/06/24 11:45:12;;;;;;;13.90;12.15;;;23.20;54.10;;;;;;4967531;28;114688;-80
2023/06/24 11:47:42;;;;;;;14.35;11.55;;;23.10;53.20;;;;;;4968662;28;114470;-80
2023/06/24 11:50:09;;;;;;;12.85;11.50;;;23.10;53.70;;;;;;4967778;28;114438;-80
2023/06/24 11:52:48;;;;;;;13.57;11.85;;;22.90;53.50;;;;;;4982900;28;115208;-80
2023/06/24 11:55:20;;;;;;;12.88;10.25;;;22.80;53.20;;;;;;4982697;28;114606;-80
2023/06/24 11:58:04;;;;;;;12.90;11.55;;;22.70;54.30;;;;;;4967670;28;114266;-80
2023/06/24 12:00:36;;;;;;;10.93;9.80;;;22.80;53.60;;;;;;4985502;28;113988;-79
2023/06/24 12:03:05;;;;;;;15.43;10.60;;;22.80;54.00;;;;;;4951746;28;116585;-80
2023/06/24 12:05:40;;;;;;;11.82;10.30;;;22.80;54.50;;;;;;4966148;28;114910;-80
2023/06/24 12:08:09;;;;;;;10.52;9.43;;;22.80;54.30;;;;;;4950715;28;114539;-80
2023/06/24 12:10:37;;;;;;;12.30;10.13;;;22.80;54.60;;;;;;4967210;28;114318;-80
2023/06/24 12:13:08;;;;;;;13.30;11.90;;;22.90;54.70;;;;;;4965092;28;114975;-80
2023/06/24 12:15:36;;;;;;;13.05;11.70;;;23.00;53.70;;;;;;4967686;28;114779;-80
2023/06/24 12:18:03;;;;;;;13.77;12.38;;;22.90;53.20;;;;;;4983248;28;114520;-80
2023/06/24 12:20:30;;;;;;;10.82;9.13;;;22.70;53.30;;;;;;4983291;28;114317;-80
2023/06/24 12:23:03;;;;;;;11.53;9.37;;;22.50;54.70;;;;;;4981884;28;117717;-80
2023/06/24 12:25:30;;;;;;;12.70;11.43;;;22.40;55.00;;;;;;4966830;28;114615;-80
2023/06/24 12:27:59;;;;;;;11.20;10.10;;;22.40;54.30;;;;;;4966577;28;114071;-80
2023/06/24 12:30:28;;;;;;;14.23;12.63;;;22.30;55.00;;;;;;4967986;28;114157;-80
2023/06/24 12:32:55;;;;;;;12.30;9.02;;;22.30;54.80;;;;;;4966415;28;116919;-80
2023/06/24 12:35:25;;;;;;;12.48;11.27;;;22.30;55.10;;;;;;4981882;28;115838;-80
2023/06/24 12:37:53;;;;;;;10.10;8.80;;;22.30;54.70;;;;;;4934128;28;114610;-80
2023/06/24 12:40:21;;;;;;;12.63;11.32;;;22.20;55.40;;;;;;4966988;28;114111;-80
2023/06/24 12:42:48;;;;;;;12.68;11.38;;;22.20;54.90;;;;;;4965839;28;114998;-80